sensor_id;sensor_type;location;lat;lon;timestamp;pressure;altitude;pressure_sealevel;temperature;humidity
67430;BME280;54298;52.076;5.264;2023-05-20T00:01:26;102465.00000000001;;;13.85;60.59
67430;BME280;54298;52.076;5.264;2023-05-20T00:03:02;102466.00000000001;;;13.85;60.5
67430;BME280;54298;52.076;5.264;2023-05-20T00:06:15;102455.0;;;13.87;60.3
67430;BME280;54298;52.076;5.264;2023-05-20T00:07:51;102463.00000000001;;;13.58;61.02
67430;BME280;54298;52.076;5.264;2023-05-20T00:09:27;102459.99999999999;;;13.68;61.07
67430;BME280;54298;52.076;5.264;2023-05-20T00:11:03;102458.0;;;13.65;60.91
67430;BME280;54298;52.076;5.264;2023-05-20T00:14:16;102453.0;;;13.57;61.21
67430;BME280;54298;52.076;5.264;2023-05-20T00:15:52;102457.0;;;13.67;61.23
67430;BME280;54298;52.076;5.264;2023-05-20T00:17:29;102453.0;;;13.7;61.15
67430;BME280;54298;52.076;5.264;2023-05-20T00:20:42;102463.00000000001;;;13.4;61.88
67430;BME280;54298;52.076;5.264;2023-05-20T00:22:18;102457.0;;;13.62;61.2
67430;BME280;54298;52.076;5.264;2023-05-20T00:23:54;102461.99999999999;;;13.67;61.33
67430;BME280;54298;52.076;5.264;2023-05-20T00:27:06;102458.99999999999;;;13.72;61.2
67430;BME280;54298;52.076;5.264;2023-05-20T00:28:43;102468.0;;;13.49;61.95
67430;BME280;54298;52.076;5.264;2023-05-20T00:30:19;102456.0;;;13.59;61.58
67430;BME280;54298;52.076;5.264;2023-05-20T00:33:31;102464.00000000001;;;13.47;61.75
67430;BME280;54298;52.076;5.264;2023-05-20T00:35:08;102461.99999999999;;;13.67;61.5
67430;BME280;54298;52.076;5.264;2023-05-20T00:36:44;102458.0;;;13.65;61.51
67430;BME280;54298;52.076;5.264;2023-05-20T00:38:20;102458.0;;;13.73;61.22
67430;BME280;54298;52.076;5.264;2023-05-20T00:41:32;102457.0;;;13.49;62.15
67430;BME280;54298;52.076;5.264;2023-05-20T00:43:09;102457.0;;;13.21;62.5
67430;BME280;54298;52.076;5.264;2023-05-20T00:44:44;102456.0;;;13.33;62.49
67430;BME280;54298;52.076;5.264;2023-05-20T00:47:59;102459.99999999999;;;13.42;62.12
67430;BME280;54298;52.076;5.264;2023-05-20T00:49:36;102453.0;;;13.48;62.15
67430;BME280;54298;52.076;5.264;2023-05-20T00:51:13;102451.0;;;13.41;62.5
67430;BME280;54298;52.076;5.264;2023-05-20T00:54:25;102444.0;;;13.48;62.31
67430;BME280;54298;52.076;5.264;2023-05-20T00:56:01;102446.0;;;13.55;61.95
67430;BME280;54298;52.076;5.264;2023-05-20T00:57:38;102442.0;;;13.57;61.76
67430;BME280;54298;52.076;5.264;2023-05-20T00:59:15;102442.0;;;13.59;62.1
67430;BME280;54298;52.076;5.264;2023-05-20T01:02:27;102438.00000000001;;;13.51;62.41
67430;BME280;54298;52.076;5.264;2023-05-20T01:04:04;102442.0;;;13.52;62.51
67430;BME280;54298;52.076;5.264;2023-05-20T01:05:40;102439.00000000001;;;13.52;62.2
67430;BME280;54298;52.076;5.264;2023-05-20T01:08:53;102439.00000000001;;;13.6;62.06
67430;BME280;54298;52.076;5.264;2023-05-20T01:10:30;102438.00000000001;;;13.55;62.21
67430;BME280;54298;52.076;5.264;2023-05-20T01:12:12;102431.0;;;13.57;62.1
67430;BME280;54298;52.076;5.264;2023-05-20T01:13:54;102431.0;;;13.61;62.03
67430;BME280;54298;52.076;5.264;2023-05-20T01:17:10;102436.99999999999;;;13.31;62.75
67430;BME280;54298;52.076;5.264;2023-05-20T01:18:48;102424.0;;;13.44;62.7
67430;BME280;54298;52.076;5.264;2023-05-20T01:20:27;102427.0;;;13.5;62.55
67430;BME280;54298;52.076;5.264;2023-05-20T01:23:43;102424.0;;;13.59;62.22
67430;BME280;54298;52.076;5.264;2023-05-20T01:25:20;102427.0;;;13.52;62.38
67430;BME280;54298;52.076;5.264;2023-05-20T01:26:56;102429.0;;;13.48;62.86
67430;BME280;54298;52.076;5.264;2023-05-20T01:28:33;102422.0;;;13.45;62.89
67430;BME280;54298;52.076;5.264;2023-05-20T01:31:47;102419.0;;;13.42;62.65
67430;BME280;54298;52.076;5.264;2023-05-20T01:33:24;102417.0;;;13.43;62.97
67430;BME280;54298;52.076;5.264;2023-05-20T01:35:05;102421.0;;;13.3;63.4
67430;BME280;54298;52.076;5.264;2023-05-20T01:38:22;102411.99999999999;;;13.36;63.09
67430;BME280;54298;52.076;5.264;2023-05-20T01:39:59;102404.0;;;13.35;63.24
67430;BME280;54298;52.076;5.264;2023-05-20T01:41:36;102403.0;;;13.24;63.52
67430;BME280;54298;52.076;5.264;2023-05-20T01:43:12;102401.0;;;13.27;63.62
67430;BME280;54298;52.076;5.264;2023-05-20T01:46:26;102409.99999999999;;;13.13;64.25
67430;BME280;54298;52.076;5.264;2023-05-20T01:48:02;102405.0;;;13.14;63.93
67430;BME280;54298;52.076;5.264;2023-05-20T01:49:38;102404.0;;;13.15;64.08
67430;BME280;54298;52.076;5.264;2023-05-20T01:52:50;102408.0;;;12.99;64.47
67430;BME280;54298;52.076;5.264;2023-05-20T01:54:27;102408.99999999999;;;12.99;64.55
67430;BME280;54298;52.076;5.264;2023-05-20T01:56:04;102413.00000000001;;;13.08;64.41
67430;BME280;54298;52.076;5.264;2023-05-20T01:59:16;102408.99999999999;;;12.99;64.7
67430;BME280;54298;52.076;5.264;2023-05-20T02:00:52;102408.0;;;12.97;64.89
67430;BME280;54298;52.076;5.264;2023-05-20T02:02:29;102409.99999999999;;;12.96;64.75
67430;BME280;54298;52.076;5.264;2023-05-20T02:04:05;102407.0;;;12.97;64.97
67430;BME280;54298;52.076;5.264;2023-05-20T02:07:17;102401.0;;;12.76;65.69
67430;BME280;54298;52.076;5.264;2023-05-20T02:08:54;102402.0;;;12.88;65.24
67430;BME280;54298;52.076;5.264;2023-05-20T02:10:30;102402.0;;;12.78;65.44
67430;BME280;54298;52.076;5.264;2023-05-20T02:13:44;102400.0;;;12.8;65.66
67430;BME280;54298;52.076;5.264;2023-05-20T02:15:20;102400.0;;;12.7;65.87
67430;BME280;54298;52.076;5.264;2023-05-20T02:16:56;102408.0;;;12.61;66.52
67430;BME280;54298;52.076;5.264;2023-05-20T02:20:09;102409.99999999999;;;12.7;66.14
67430;BME280;54298;52.076;5.264;2023-05-20T02:21:46;102409.99999999999;;;12.67;66.09
67430;BME280;54298;52.076;5.264;2023-05-20T02:23:22;102411.99999999999;;;12.69;66.36
67430;BME280;54298;52.076;5.264;2023-05-20T02:24:58;102408.99999999999;;;12.69;66.28
67430;BME280;54298;52.076;5.264;2023-05-20T02:28:10;102413.00000000001;;;12.57;66.49
67430;BME280;54298;52.076;5.264;2023-05-20T02:29:47;102413.00000000001;;;12.66;66.53
67430;BME280;54298;52.076;5.264;2023-05-20T02:31:23;102406.0;;;12.54;66.67
67430;BME280;54298;52.076;5.264;2023-05-20T02:34:35;102406.0;;;12.59;66.72
67430;BME280;54298;52.076;5.264;2023-05-20T02:36:11;102406.0;;;12.56;66.88
67430;BME280;54298;52.076;5.264;2023-05-20T02:37:48;102403.0;;;12.54;66.78
67430;BME280;54298;52.076;5.264;2023-05-20T02:41:00;102399.0;;;12.48;67.19
67430;BME280;54298;52.076;5.264;2023-05-20T02:42:36;102398.0;;;12.55;66.99
67430;BME280;54298;52.076;5.264;2023-05-20T02:44:12;102397.0;;;12.47;67.25
67430;BME280;54298;52.076;5.264;2023-05-20T02:47:26;102392.0;;;12.5;67.14
67430;BME280;54298;52.076;5.264;2023-05-20T02:49:02;102391.0;;;12.46;67.35
67430;BME280;54298;52.076;5.264;2023-05-20T02:50:38;102389.0;;;12.4;67.52
67430;BME280;54298;52.076;5.264;2023-05-20T02:52:14;102387.0;;;12.46;67.41
67430;BME280;54298;52.076;5.264;2023-05-20T02:55:27;102386.0;;;12.43;67.41
67430;BME280;54298;52.076;5.264;2023-05-20T02:57:03;102385.0;;;12.38;67.66
67430;BME280;54298;52.076;5.264;2023-05-20T02:58:39;102385.0;;;12.34;67.94
67430;BME280;54298;52.076;5.264;2023-05-20T03:01:51;102389.0;;;12.28;68.2
67430;BME280;54298;52.076;5.264;2023-05-20T03:03:28;102389.0;;;12.38;67.87
67430;BME280;54298;52.076;5.264;2023-05-20T03:05:04;102387.0;;;12.36;68.08
67430;BME280;54298;52.076;5.264;2023-05-20T03:08:19;102389.0;;;12.29;68.33
67430;BME280;54298;52.076;5.264;2023-05-20T03:09:56;102392.0;;;12.26;68.42
67430;BME280;54298;52.076;5.264;2023-05-20T03:11:32;102397.0;;;12.11;68.91
67430;BME280;54298;52.076;5.264;2023-05-20T03:13:08;102396.0;;;12.16;68.86
67430;BME280;54298;52.076;5.264;2023-05-20T03:16:21;102396.0;;;12.08;69.27
67430;BME280;54298;52.076;5.264;2023-05-20T03:17:57;102392.0;;;12.02;69.61
67430;BME280;54298;52.076;5.264;2023-05-20T03:19:34;102391.0;;;12.05;69.61
67430;BME280;54298;52.076;5.264;2023-05-20T03:22:46;102395.0;;;11.97;69.81
67430;BME280;54298;52.076;5.264;2023-05-20T03:24:22;102401.0;;;11.99;69.67
67430;BME280;54298;52.076;5.264;2023-05-20T03:25:58;102395.0;;;11.89;70.3
67430;BME280;54298;52.076;5.264;2023-05-20T03:29:11;102393.0;;;11.93;70.16
67430;BME280;54298;52.076;5.264;2023-05-20T03:30:47;102395.0;;;11.89;70.33
67430;BME280;54298;52.076;5.264;2023-05-20T03:32:23;102396.0;;;11.78;70.88
67430;BME280;54298;52.076;5.264;2023-05-20T03:33:59;102397.0;;;11.8;70.8
67430;BME280;54298;52.076;5.264;2023-05-20T03:37:12;102396.0;;;11.73;70.91
67430;BME280;54298;52.076;5.264;2023-05-20T03:38:48;102394.0;;;11.8;70.92
67430;BME280;54298;52.076;5.264;2023-05-20T03:40:24;102393.0;;;11.72;71.14
67430;BME280;54298;52.076;5.264;2023-05-20T03:43:36;102393.0;;;11.8;70.95
67430;BME280;54298;52.076;5.264;2023-05-20T03:45:12;102385.0;;;11.75;71.34
67430;BME280;54298;52.076;5.264;2023-05-20T03:46:49;102390.0;;;11.71;71.45
67430;BME280;54298;52.076;5.264;2023-05-20T03:50:01;102391.0;;;11.65;71.66
67430;BME280;54298;52.076;5.264;2023-05-20T03:51:37;102392.0;;;11.79;71.24
67430;BME280;54298;52.076;5.264;2023-05-20T03:53:13;102394.0;;;11.81;71.2
67430;BME280;54298;52.076;5.264;2023-05-20T03:56:26;102395.0;;;11.66;71.81
67430;BME280;54298;52.076;5.264;2023-05-20T03:58:02;102393.0;;;11.54;72.44
67430;BME280;54298;52.076;5.264;2023-05-20T03:59:38;102390.0;;;11.64;72.24
67430;BME280;54298;52.076;5.264;2023-05-20T04:01:14;102394.0;;;11.72;72.05
67430;BME280;54298;52.076;5.264;2023-05-20T04:04:27;102391.0;;;11.73;71.99
67430;BME280;54298;52.076;5.264;2023-05-20T04:06:03;102388.0;;;11.7;72.3
67430;BME280;54298;52.076;5.264;2023-05-20T04:07:39;102390.0;;;11.77;71.97
67430;BME280;54298;52.076;5.264;2023-05-20T04:10:54;102386.0;;;11.84;71.77
67430;BME280;54298;52.076;5.264;2023-05-20T04:12:31;102385.0;;;11.85;71.66
67430;BME280;54298;52.076;5.264;2023-05-20T04:14:07;102384.0;;;11.86;71.86
67430;BME280;54298;52.076;5.264;2023-05-20T04:17:19;102390.0;;;11.92;71.74
67430;BME280;54298;52.076;5.264;2023-05-20T04:18:55;102387.0;;;11.99;71.63
67430;BME280;54298;52.076;5.264;2023-05-20T04:20:32;102387.0;;;12.05;71.66
67430;BME280;54298;52.076;5.264;2023-05-20T04:22:08;102390.0;;;11.94;72.03
67430;BME280;54298;52.076;5.264;2023-05-20T04:25:20;102394.0;;;12.13;71.45
67430;BME280;54298;52.076;5.264;2023-05-20T04:26:56;102390.0;;;12.2;71.33
67430;BME280;54298;52.076;5.264;2023-05-20T04:28:33;102391.0;;;12.28;70.98
67430;BME280;54298;52.076;5.264;2023-05-20T04:31:46;102393.0;;;12.25;71.17
67430;BME280;54298;52.076;5.264;2023-05-20T04:33:22;102395.0;;;12.23;71.23
67430;BME280;54298;52.076;5.264;2023-05-20T04:34:58;102395.0;;;12.34;71.16
67430;BME280;54298;52.076;5.264;2023-05-20T04:38:11;102394.0;;;12.17;71.39
67430;BME280;54298;52.076;5.264;2023-05-20T04:39:47;102398.0;;;12.28;71.44
67430;BME280;54298;52.076;5.264;2023-05-20T04:41:23;102396.0;;;12.41;70.81
67430;BME280;54298;52.076;5.264;2023-05-20T04:42:59;102393.0;;;12.58;70.13
67430;BME280;54298;52.076;5.264;2023-05-20T04:46:12;102394.0;;;12.73;69.77
67430;BME280;54298;52.076;5.264;2023-05-20T04:47:48;102397.0;;;12.75;69.91
67430;BME280;54298;52.076;5.264;2023-05-20T04:49:24;102399.0;;;12.8;69.66
67430;BME280;54298;52.076;5.264;2023-05-20T04:52:38;102402.0;;;12.71;69.62
67430;BME280;54298;52.076;5.264;2023-05-20T04:54:15;102398.0;;;12.69;69.3
67430;BME280;54298;52.076;5.264;2023-05-20T04:55:53;102397.0;;;12.85;68.94
67430;BME280;54298;52.076;5.264;2023-05-20T04:59:05;102397.0;;;12.9;69.02
67430;BME280;54298;52.076;5.264;2023-05-20T05:00:42;102391.0;;;12.66;69.27
67430;BME280;54298;52.076;5.264;2023-05-20T05:02:19;102393.0;;;12.83;68.64
67430;BME280;54298;52.076;5.264;2023-05-20T05:03:55;102392.0;;;12.86;68.92
67430;BME280;54298;52.076;5.264;2023-05-20T05:07:07;102390.0;;;12.85;68.8
67430;BME280;54298;52.076;5.264;2023-05-20T05:08:43;102396.0;;;12.94;68.55
67430;BME280;54298;52.076;5.264;2023-05-20T05:10:20;102397.0;;;12.87;68.7
67430;BME280;54298;52.076;5.264;2023-05-20T05:13:32;102389.0;;;13.05;68.61
67430;BME280;54298;52.076;5.264;2023-05-20T05:15:09;102391.0;;;13.19;67.89
67430;BME280;54298;52.076;5.264;2023-05-20T05:16:45;102393.0;;;13.2;67.83
67430;BME280;54298;52.076;5.264;2023-05-20T05:19:58;102393.0;;;13.22;67.8
67430;BME280;54298;52.076;5.264;2023-05-20T05:21:34;102389.0;;;13.22;68.02
67430;BME280;54298;52.076;5.264;2023-05-20T05:23:10;102392.0;;;13.25;67.66
67430;BME280;54298;52.076;5.264;2023-05-20T05:26:22;102391.0;;;13.33;67.1
67430;BME280;54298;52.076;5.264;2023-05-20T05:27:59;102381.0;;;13.15;67.47
67430;BME280;54298;52.076;5.264;2023-05-20T05:29:35;102386.0;;;13.26;67.72
67430;BME280;54298;52.076;5.264;2023-05-20T05:31:11;102378.0;;;13.47;66.85
67430;BME280;54298;52.076;5.264;2023-05-20T05:34:23;102375.0;;;13.53;66.64
67430;BME280;54298;52.076;5.264;2023-05-20T05:36:00;102375.0;;;13.43;67.05
67430;BME280;54298;52.076;5.264;2023-05-20T05:37:36;102368.0;;;13.54;66.8
67430;BME280;54298;52.076;5.264;2023-05-20T05:40:48;102374.0;;;13.55;66.56
67430;BME280;54298;52.076;5.264;2023-05-20T05:42:24;102372.0;;;13.71;66.12
67430;BME280;54298;52.076;5.264;2023-05-20T05:44:00;102377.0;;;13.7;66.22
67430;BME280;54298;52.076;5.264;2023-05-20T05:47:14;102377.0;;;13.84;65.7
67430;BME280;54298;52.076;5.264;2023-05-20T05:48:50;102373.0;;;13.96;65.83
67430;BME280;54298;52.076;5.264;2023-05-20T05:50:26;102375.0;;;13.81;65.74
67430;BME280;54298;52.076;5.264;2023-05-20T05:52:03;102375.0;;;13.84;65.3
67430;BME280;54298;52.076;5.264;2023-05-20T05:55:15;102374.0;;;13.9;65.36
67430;BME280;54298;52.076;5.264;2023-05-20T05:56:52;102370.0;;;13.79;65.35
67430;BME280;54298;52.076;5.264;2023-05-20T05:58:28;102367.0;;;13.95;64.99
67430;BME280;54298;52.076;5.264;2023-05-20T06:01:43;102363.0;;;13.92;65.41
67430;BME280;54298;52.076;5.264;2023-05-20T06:03:19;102373.0;;;13.86;65.41
67430;BME280;54298;52.076;5.264;2023-05-20T06:04:55;102368.0;;;14.1;64.77
67430;BME280;54298;52.076;5.264;2023-05-20T06:08:08;102370.0;;;14.21;64.36
67430;BME280;54298;52.076;5.264;2023-05-20T06:09:45;102367.0;;;14.12;64.61
67430;BME280;54298;52.076;5.264;2023-05-20T06:11:21;102367.0;;;14.01;64.83
67430;BME280;54298;52.076;5.264;2023-05-20T06:12:57;102365.0;;;14.01;64.77
67430;BME280;54298;52.076;5.264;2023-05-20T06:16:09;102361.0;;;14.21;64.22
67430;BME280;54298;52.076;5.264;2023-05-20T06:17:45;102369.0;;;14.27;63.93
67430;BME280;54298;52.076;5.264;2023-05-20T06:19:22;102369.0;;;14.33;63.78
67430;BME280;54298;52.076;5.264;2023-05-20T06:22:35;102363.0;;;14.35;63.29
67430;BME280;54298;52.076;5.264;2023-05-20T06:24:11;102358.0;;;14.51;63.68
67430;BME280;54298;52.076;5.264;2023-05-20T06:25:48;102363.0;;;14.43;64.06
67430;BME280;54298;52.076;5.264;2023-05-20T06:29:01;102366.0;;;14.64;63.62
67430;BME280;54298;52.076;5.264;2023-05-20T06:30:37;102367.0;;;14.68;62.95
67430;BME280;54298;52.076;5.264;2023-05-20T06:32:13;102365.0;;;14.61;63.62
67430;BME280;54298;52.076;5.264;2023-05-20T06:35:26;102366.0;;;14.88;62.66
67430;BME280;54298;52.076;5.264;2023-05-20T06:37:02;102373.0;;;14.9;62.83
67430;BME280;54298;52.076;5.264;2023-05-20T06:38:38;102366.0;;;14.86;62.43
67430;BME280;54298;52.076;5.264;2023-05-20T06:40:14;102360.0;;;14.88;62.31
67430;BME280;54298;52.076;5.264;2023-05-20T06:43:26;102364.0;;;15.01;62.16
67430;BME280;54298;52.076;5.264;2023-05-20T06:45:04;102367.0;;;15.17;62.49
67430;BME280;54298;52.076;5.264;2023-05-20T06:46:41;102355.0;;;15.12;61.79
67430;BME280;54298;52.076;5.264;2023-05-20T06:49:53;102359.0;;;15.2;61.46
67430;BME280;54298;52.076;5.264;2023-05-20T06:51:29;102359.0;;;15.27;61.16
67430;BME280;54298;52.076;5.264;2023-05-20T06:53:05;102357.0;;;15.16;61.52
67430;BME280;54298;52.076;5.264;2023-05-20T06:56:18;102352.0;;;15.2;61.46
67430;BME280;54298;52.076;5.264;2023-05-20T06:57:54;102346.0;;;15.34;61.56
67430;BME280;54298;52.076;5.264;2023-05-20T06:59:30;102349.0;;;15.53;60.33
67430;BME280;54298;52.076;5.264;2023-05-20T07:01:06;102346.0;;;15.68;59.94
67430;BME280;54298;52.076;5.264;2023-05-20T07:04:19;102339.0;;;15.4;60.53
67430;BME280;54298;52.076;5.264;2023-05-20T07:05:55;102342.0;;;15.64;59.54
67430;BME280;54298;52.076;5.264;2023-05-20T07:07:31;102340.0;;;15.6;59.55
67430;BME280;54298;52.076;5.264;2023-05-20T07:10:43;102342.0;;;15.78;59.14
67430;BME280;54298;52.076;5.264;2023-05-20T07:12:20;102331.0;;;15.85;59.2
67430;BME280;54298;52.076;5.264;2023-05-20T07:13:57;102341.0;;;15.91;59.2
67430;BME280;54298;52.076;5.264;2023-05-20T07:17:10;102333.0;;;15.9;58.33
67430;BME280;54298;52.076;5.264;2023-05-20T07:18:46;102334.0;;;15.92;58.2
67430;BME280;54298;52.076;5.264;2023-05-20T07:20:22;102335.0;;;16.05;57.84
67430;BME280;54298;52.076;5.264;2023-05-20T07:21:59;102334.0;;;16.2;56.72
67430;BME280;54298;52.076;5.264;2023-05-20T07:25:11;102330.0;;;16.11;57.42
67430;BME280;54298;52.076;5.264;2023-05-20T07:26:47;102331.0;;;16.25;57.37
67430;BME280;54298;52.076;5.264;2023-05-20T07:28:23;102323.0;;;16.43;57.0
67430;BME280;54298;52.076;5.264;2023-05-20T07:31:36;102322.0;;;16.47;56.92
67430;BME280;54298;52.076;5.264;2023-05-20T07:33:12;102323.0;;;16.53;56.17
67430;BME280;54298;52.076;5.264;2023-05-20T07:34:48;102313.0;;;16.79;56.54
67430;BME280;54298;52.076;5.264;2023-05-20T07:38:01;102321.0;;;16.86;55.12
67430;BME280;54298;52.076;5.264;2023-05-20T07:39:37;102313.0;;;17.02;55.46
67430;BME280;54298;52.076;5.264;2023-05-20T07:41:13;102311.0;;;17.04;55.01
67430;BME280;54298;52.076;5.264;2023-05-20T07:44:26;102309.0;;;17.11;54.31
67430;BME280;54298;52.076;5.264;2023-05-20T07:46:02;102307.0;;;17.05;54.37
67430;BME280;54298;52.076;5.264;2023-05-20T07:47:39;102307.0;;;17.23;54.07
67430;BME280;54298;52.076;5.264;2023-05-20T07:49:15;102308.0;;;17.25;53.59
67430;BME280;54298;52.076;5.264;2023-05-20T07:52:28;102302.0;;;17.41;53.38
67430;BME280;54298;52.076;5.264;2023-05-20T07:54:04;102300.0;;;17.22;52.26
67430;BME280;54298;52.076;5.264;2023-05-20T07:55:41;102305.0;;;17.38;52.74
67430;BME280;54298;52.076;5.264;2023-05-20T07:58:55;102294.0;;;17.45;52.69
67430;BME280;54298;52.076;5.264;2023-05-20T08:00:32;102291.0;;;17.43;50.9
67430;BME280;54298;52.076;5.264;2023-05-20T08:02:08;102296.0;;;17.29;50.34
67430;BME280;54298;52.076;5.264;2023-05-20T08:05:20;102294.0;;;17.43;50.54
67430;BME280;54298;52.076;5.264;2023-05-20T08:06:56;102281.0;;;17.7;50.89
67430;BME280;54298;52.076;5.264;2023-05-20T08:08:33;102287.0;;;17.86;50.79
67430;BME280;54298;52.076;5.264;2023-05-20T08:10:09;102282.0;;;17.95;50.84
67430;BME280;54298;52.076;5.264;2023-05-20T08:13:22;102286.0;;;17.88;49.42
67430;BME280;54298;52.076;5.264;2023-05-20T08:15:00;102278.0;;;18.03;48.57
67430;BME280;54298;52.076;5.264;2023-05-20T08:16:36;102284.0;;;17.89;48.58
67430;BME280;54298;52.076;5.264;2023-05-20T08:19:49;102290.0;;;17.78;47.88
67430;BME280;54298;52.076;5.264;2023-05-20T08:21:25;102285.0;;;17.82;48.32
67430;BME280;54298;52.076;5.264;2023-05-20T08:23:01;102283.0;;;17.97;47.47
67430;BME280;54298;52.076;5.264;2023-05-20T08:26:13;102286.0;;;18.13;47.22
67430;BME280;54298;52.076;5.264;2023-05-20T08:27:50;102278.0;;;18.16;46.87
67430;BME280;54298;52.076;5.264;2023-05-20T08:29:26;102285.0;;;18.25;46.9
67430;BME280;54298;52.076;5.264;2023-05-20T08:31:02;102287.0;;;18.18;47.62
67430;BME280;54298;52.076;5.264;2023-05-20T08:34:14;102283.0;;;18.37;46.42
67430;BME280;54298;52.076;5.264;2023-05-20T08:35:50;102276.0;;;18.38;45.81
67430;BME280;54298;52.076;5.264;2023-05-20T08:37:27;102280.0;;;18.45;45.95
67430;BME280;54298;52.076;5.264;2023-05-20T08:40:39;102268.0;;;18.61;46.33
67430;BME280;54298;52.076;5.264;2023-05-20T08:42:20;102265.0;;;18.77;45.92
67430;BME280;54298;52.076;5.264;2023-05-20T08:43:58;102267.0;;;19.0;45.36
67430;BME280;54298;52.076;5.264;2023-05-20T08:47:13;102266.0;;;18.95;44.5
67430;BME280;54298;52.076;5.264;2023-05-20T08:48:49;102266.0;;;18.86;44.1
67430;BME280;54298;52.076;5.264;2023-05-20T08:50:25;102267.0;;;19.13;43.72
67430;BME280;54298;52.076;5.264;2023-05-20T08:52:03;102255.0;;;19.16;43.79
67430;BME280;54298;52.076;5.264;2023-05-20T08:55:17;102255.0;;;18.89;42.48
67430;BME280;54298;52.076;5.264;2023-05-20T08:57:01;102251.0;;;18.93;42.53
67430;BME280;54298;52.076;5.264;2023-05-20T08:58:37;102258.0;;;18.97;41.8
67430;BME280;54298;52.076;5.264;2023-05-20T09:01:50;102253.0;;;19.0;41.65
67430;BME280;54298;52.076;5.264;2023-05-20T09:03:27;102244.0;;;18.95;41.35
67430;BME280;54298;52.076;5.264;2023-05-20T09:05:04;102256.0;;;18.93;42.39
67430;BME280;54298;52.076;5.264;2023-05-20T09:06:42;102248.0;;;19.14;41.88
67430;BME280;54298;52.076;5.264;2023-05-20T09:09:59;102247.0;;;19.16;41.84
67430;BME280;54298;52.076;5.264;2023-05-20T09:11:35;102243.0;;;19.2;42.16
67430;BME280;54298;52.076;5.264;2023-05-20T09:13:12;102247.0;;;19.2;41.65
67430;BME280;54298;52.076;5.264;2023-05-20T09:16:24;102243.0;;;19.02;41.97
67430;BME280;54298;52.076;5.264;2023-05-20T09:18:01;102245.0;;;19.12;41.65
67430;BME280;54298;52.076;5.264;2023-05-20T09:19:37;102223.0;;;18.93;40.75
67430;BME280;54298;52.076;5.264;2023-05-20T09:21:14;102241.0;;;19.0;40.78
67430;BME280;54298;52.076;5.264;2023-05-20T09:24:27;102245.0;;;18.91;41.64
67430;BME280;54298;52.076;5.264;2023-05-20T09:26:03;102236.0;;;18.89;41.52
67430;BME280;54298;52.076;5.264;2023-05-20T09:27:39;102246.0;;;18.97;41.66
67430;BME280;54298;52.076;5.264;2023-05-20T09:30:56;102237.0;;;19.07;41.17
67430;BME280;54298;52.076;5.264;2023-05-20T09:32:33;102245.0;;;19.02;40.53
67430;BME280;54298;52.076;5.264;2023-05-20T09:34:09;102237.0;;;19.11;40.51
67430;BME280;54298;52.076;5.264;2023-05-20T09:37:25;102226.0;;;19.25;41.06
67430;BME280;54298;52.076;5.264;2023-05-20T09:39:02;102218.0;;;19.23;40.5
67430;BME280;54298;52.076;5.264;2023-05-20T09:40:40;102222.0;;;19.25;42.79
67430;BME280;54298;52.076;5.264;2023-05-20T09:42:21;102222.0;;;19.45;40.14
67430;BME280;54298;52.076;5.264;2023-05-20T09:45:34;102224.0;;;19.45;39.76
67430;BME280;54298;52.076;5.264;2023-05-20T09:47:14;102221.0;;;19.47;39.69
67430;BME280;54298;52.076;5.264;2023-05-20T09:48:51;102220.0;;;19.55;39.67
67430;BME280;54298;52.076;5.264;2023-05-20T09:52:05;102226.0;;;19.64;40.46
67430;BME280;54298;52.076;5.264;2023-05-20T09:53:42;102211.0;;;19.66;39.24
67430;BME280;54298;52.076;5.264;2023-05-20T09:55:20;102218.0;;;19.7;39.71
67430;BME280;54298;52.076;5.264;2023-05-20T09:57:00;102213.0;;;19.68;39.35
67430;BME280;54298;52.076;5.264;2023-05-20T10:00:16;102222.0;;;19.88;39.32
67430;BME280;54298;52.076;5.264;2023-05-20T10:01:52;102215.0;;;19.89;38.24
67430;BME280;54298;52.076;5.264;2023-05-20T10:03:29;102207.0;;;19.86;38.57
67430;BME280;54298;52.076;5.264;2023-05-20T10:07:06;102215.0;;;19.93;39.04
67430;BME280;54298;52.076;5.264;2023-05-20T10:09:04;102209.0;;;20.02;38.6
67430;BME280;54298;52.076;5.264;2023-05-20T10:10:52;102207.0;;;20.16;38.56
67430;BME280;54298;52.076;5.264;2023-05-20T10:12:35;102206.0;;;20.25;39.01
67430;BME280;54298;52.076;5.264;2023-05-20T10:14:36;102196.0;;;20.47;38.21
67430;BME280;54298;52.076;5.264;2023-05-20T10:16:25;102201.0;;;20.43;38.14
67430;BME280;54298;52.076;5.264;2023-05-20T10:18:10;102194.0;;;20.31;37.99
67430;BME280;54298;52.076;5.264;2023-05-20T10:19:56;102198.0;;;20.36;38.47
67430;BME280;54298;52.076;5.264;2023-05-20T10:23:19;102206.0;;;20.32;38.42
67430;BME280;54298;52.076;5.264;2023-05-20T10:24:58;102196.0;;;20.27;39.33
67430;BME280;54298;52.076;5.264;2023-05-20T10:26:35;102191.0;;;20.46;38.69
67430;BME280;54298;52.076;5.264;2023-05-20T10:28:12;102197.0;;;20.45;38.03
67430;BME280;54298;52.076;5.264;2023-05-20T10:31:27;102186.0;;;20.67;38.61
67430;BME280;54298;52.076;5.264;2023-05-20T10:33:04;102180.0;;;20.66;38.4
67430;BME280;54298;52.076;5.264;2023-05-20T10:34:47;102186.0;;;20.45;37.57
67430;BME280;54298;52.076;5.264;2023-05-20T10:38:07;102176.0;;;20.62;37.39
67430;BME280;54298;52.076;5.264;2023-05-20T10:39:44;102170.0;;;20.62;37.62
67430;BME280;54298;52.076;5.264;2023-05-20T10:41:24;102169.0;;;20.62;37.67
67430;BME280;54298;52.076;5.264;2023-05-20T10:43:08;102162.0;;;20.57;37.9
67430;BME280;54298;52.076;5.264;2023-05-20T10:46:22;102155.0;;;20.72;37.75
67430;BME280;54298;52.076;5.264;2023-05-20T10:47:58;102152.0;;;20.89;37.99
67430;BME280;54298;52.076;5.264;2023-05-20T10:49:35;102157.0;;;20.86;37.81
67430;BME280;54298;52.076;5.264;2023-05-20T10:51:14;102166.0;;;20.96;39.03
67430;BME280;54298;52.076;5.264;2023-05-20T10:54:26;102162.0;;;21.08;37.37
67430;BME280;54298;52.076;5.264;2023-05-20T10:56:02;102156.0;;;20.94;37.89
67430;BME280;54298;52.076;5.264;2023-05-20T10:57:39;102160.0;;;20.93;37.21